createdAt,value
2018-07-03T00:01:23.523Z,2.27
2018-07-03T00:03:50.967Z,3.00
2018-07-03T00:06:18.415Z,2.70
2018-07-03T00:08:45.885Z,2.40
2018-07-03T00:11:13.319Z,2.23
2018-07-03T00:13:40.678Z,2.30
2018-07-03T00:16:08.134Z,2.73
2018-07-03T00:18:35.513Z,2.37
2018-07-03T00:21:02.920Z,2.40
2018-07-03T00:23:30.282Z,2.40
2018-07-03T00:25:57.641Z,1.80
2018-07-03T00:28:25.125Z,2.43
2018-07-03T00:30:52.497Z,2.60
2018-07-03T00:33:19.841Z,2.57
2018-07-03T00:35:47.198Z,2.20
2018-07-03T00:38:14.603Z,2.10
2018-07-03T00:40:42.063Z,2.47
2018-07-03T00:43:09.427Z,2.30
2018-07-03T00:45:36.785Z,2.40
2018-07-03T00:48:04.167Z,2.30
2018-07-03T00:50:31.521Z,2.60
2018-07-03T00:52:58.877Z,2.57
2018-07-03T00:55:26.274Z,2.27
2018-07-03T00:57:53.614Z,2.30
2018-07-03T01:00:26.610Z,2.60
2018-07-03T01:02:53.998Z,2.50
2018-07-03T01:05:21.372Z,2.53
2018-07-03T01:07:48.742Z,2.50
2018-07-03T01:10:16.094Z,2.80
2018-07-03T01:12:43.493Z,2.83
2018-07-03T01:15:10.934Z,2.10
2018-07-03T01:17:38.328Z,3.00
2018-07-03T01:20:05.778Z,2.53
2018-07-03T01:22:33.144Z,2.10
2018-07-03T01:25:00.489Z,2.20
2018-07-03T01:27:27.854Z,2.47
2018-07-03T01:29:55.213Z,2.93
2018-07-03T01:32:22.609Z,2.27
2018-07-03T01:34:49.977Z,2.53
2018-07-03T01:37:17.359Z,2.53
2018-07-03T01:39:44.799Z,2.10
2018-07-03T01:42:12.197Z,2.30
2018-07-03T01:44:39.860Z,2.50
2018-07-03T01:47:07.214Z,1.90
2018-07-03T01:49:34.772Z,2.60
2018-07-03T01:52:02.145Z,2.27
2018-07-03T01:54:29.521Z,2.50
2018-07-03T01:56:56.886Z,2.20
2018-07-03T01:59:24.252Z,2.30
2018-07-03T02:04:36.606Z,2.00
2018-07-03T02:07:04.413Z,2.37
2018-07-03T02:09:31.755Z,2.17
2018-07-03T02:11:59.121Z,2.30
2018-07-03T02:14:26.502Z,2.20
2018-07-03T02:16:53.829Z,2.77
2018-07-03T02:19:21.217Z,2.67
2018-07-03T02:21:48.583Z,2.53
2018-07-03T02:24:15.962Z,2.50
2018-07-03T02:26:43.313Z,2.60
2018-07-03T02:29:10.682Z,2.50
2018-07-03T02:31:38.039Z,2.60
2018-07-03T02:34:05.465Z,3.07
2018-07-03T02:36:32.873Z,2.70
2018-07-03T02:39:00.283Z,2.60
2018-07-03T02:41:27.649Z,2.50
2018-07-03T02:43:55.229Z,2.80
2018-07-03T02:46:22.670Z,2.70
2018-07-03T02:48:50.038Z,2.33
2018-07-03T02:51:17.405Z,2.17
2018-07-03T02:53:44.761Z,2.50
2018-07-03T02:56:12.195Z,2.43
2018-07-03T02:58:40.629Z,2.67
2018-07-03T03:01:07.986Z,2.57
2018-07-03T03:03:35.389Z,2.40
2018-07-03T03:06:02.761Z,2.63
2018-07-03T03:08:30.115Z,2.43
2018-07-03T03:10:57.469Z,2.70
2018-07-03T03:13:24.842Z,2.77
2018-07-03T03:15:52.202Z,2.90
2018-07-03T03:18:19.602Z,3.20
2018-07-03T03:20:46.967Z,3.03
2018-07-03T03:23:14.362Z,2.87
2018-07-03T03:25:41.797Z,2.97
2018-07-03T03:28:09.164Z,3.07
2018-07-03T03:30:36.542Z,2.90
2018-07-03T03:33:03.914Z,2.80
2018-07-03T03:35:31.366Z,3.13
2018-07-03T03:37:58.697Z,3.30
2018-07-03T03:40:26.189Z,2.83
2018-07-03T03:42:53.570Z,3.33
2018-07-03T03:45:20.958Z,2.90
2018-07-03T03:47:48.388Z,3.00
2018-07-03T03:50:15.764Z,2.70
2018-07-03T03:52:43.175Z,3.23
2018-07-03T03:55:10.609Z,3.17
2018-07-03T03:57:37.986Z,3.33
2018-07-03T04:00:06.274Z,3.00
2018-07-03T04:02:33.654Z,3.30
2018-07-03T04:05:00.998Z,3.07
2018-07-03T04:07:28.405Z,3.47
2018-07-03T04:09:56.048Z,3.30
2018-07-03T04:12:23.386Z,3.43
2018-07-03T04:14:50.784Z,3.40
2018-07-03T04:17:18.151Z,3.40
2018-07-03T04:19:45.533Z,3.53
2018-07-03T04:22:12.912Z,4.07
2018-07-03T04:24:40.374Z,3.70
2018-07-03T04:27:07.857Z,3.93
2018-07-03T04:29:35.298Z,3.73
2018-07-03T04:32:02.647Z,3.63
2018-07-03T04:34:30.007Z,4.33
2018-07-03T04:36:57.401Z,4.30
2018-07-03T04:39:24.734Z,4.40
2018-07-03T04:41:52.127Z,3.97
2018-07-03T04:44:19.494Z,3.90
2018-07-03T04:46:46.928Z,4.20
2018-07-03T04:49:14.312Z,4.80
2018-07-03T04:51:41.690Z,4.80
2018-07-03T04:54:09.058Z,4.20
2018-07-03T04:56:36.413Z,4.17
2018-07-03T04:59:03.805Z,4.23
2018-07-03T05:01:31.158Z,4.20
2018-07-03T05:03:58.549Z,4.20
2018-07-03T05:06:25.886Z,4.27
2018-07-03T05:08:53.262Z,3.70
2018-07-03T05:11:20.729Z,3.70
2018-07-03T05:13:48.101Z,3.00
2018-07-03T05:16:15.484Z,3.20
2018-07-03T05:18:42.830Z,2.80
2018-07-03T05:21:10.210Z,2.40
2018-07-03T05:23:37.554Z,2.70
2018-07-03T05:26:04.977Z,2.60
2018-07-03T05:28:32.407Z,2.60
2018-07-03T05:30:59.793Z,2.40
2018-07-03T05:33:27.195Z,2.50
2018-07-03T05:35:54.625Z,2.40
2018-07-03T05:38:21.990Z,2.37
2018-07-03T05:40:49.358Z,2.20
2018-07-03T05:43:16.718Z,2.40
2018-07-03T05:45:45.127Z,2.03
2018-07-03T05:48:12.526Z,2.20
2018-07-03T05:50:39.951Z,2.33
2018-07-03T05:53:07.328Z,1.80
2018-07-03T05:55:34.683Z,1.80
2018-07-03T05:58:02.097Z,2.03
2018-07-03T06:00:29.533Z,1.80
2018-07-03T06:02:56.890Z,1.40
2018-07-03T06:05:24.260Z,1.77
2018-07-03T06:07:51.936Z,1.67
2018-07-03T06:10:19.431Z,2.03
2018-07-03T06:12:46.657Z,1.77
2018-07-03T06:15:14.053Z,2.10
2018-07-03T06:17:41.396Z,1.90
2018-07-03T06:20:09.489Z,1.47
2018-07-03T06:22:36.879Z,1.83
2018-07-03T06:25:04.333Z,1.67
2018-07-03T06:27:31.720Z,1.60
2018-07-03T06:29:59.068Z,1.70
2018-07-03T06:32:26.456Z,1.37
2018-07-03T06:34:54.116Z,1.50
2018-07-03T06:37:21.499Z,1.80
2018-07-03T06:39:48.856Z,1.40
2018-07-03T06:42:16.255Z,1.67
2018-07-03T06:44:43.731Z,1.37
2018-07-03T06:47:11.158Z,1.40
2018-07-03T06:49:38.533Z,1.50
2018-07-03T06:52:05.869Z,1.80
2018-07-03T06:54:33.267Z,1.27
2018-07-03T06:57:00.615Z,1.30
2018-07-03T06:59:28.000Z,1.67
2018-07-03T07:01:55.368Z,1.40
2018-07-03T07:04:22.771Z,1.30
2018-07-03T07:06:50.251Z,1.23
2018-07-03T07:09:17.755Z,1.40
2018-07-03T07:11:45.149Z,1.40
2018-07-03T07:14:12.550Z,1.30
2018-07-03T07:16:39.988Z,1.20
2018-07-03T07:19:07.367Z,1.40
2018-07-03T07:21:34.799Z,1.20
2018-07-03T07:24:02.189Z,1.40
2018-07-03T07:26:29.555Z,1.17
2018-07-03T07:28:56.936Z,1.10
2018-07-03T07:31:24.422Z,1.23
2018-07-03T07:33:51.850Z,1.47
2018-07-03T07:36:19.247Z,1.40
2018-07-03T07:38:46.699Z,1.30
2018-07-03T07:41:14.072Z,1.20
2018-07-03T07:43:41.423Z,1.17
2018-07-03T07:46:08.793Z,1.40
2018-07-03T07:48:36.212Z,1.20
2018-07-03T07:51:03.641Z,1.20
2018-07-03T07:53:31.007Z,1.40
2018-07-03T07:55:58.390Z,1.03
2018-07-03T07:58:25.841Z,1.30
2018-07-03T08:00:53.197Z,1.40
2018-07-03T08:03:20.552Z,1.33
2018-07-03T08:05:47.935Z,1.20
2018-07-03T08:08:15.310Z,1.23
2018-07-03T08:10:42.779Z,1.40
2018-07-03T08:13:10.161Z,1.00
2018-07-03T08:15:37.611Z,1.37
2018-07-03T08:18:05.057Z,1.20
2018-07-03T08:20:32.470Z,1.20
2018-07-03T08:22:59.931Z,1.33
2018-07-03T08:25:27.291Z,1.20
2018-07-03T08:27:54.635Z,1.23
2018-07-03T08:30:26.094Z,1.33
2018-07-03T08:32:53.508Z,1.27
2018-07-03T08:35:20.937Z,1.03
2018-07-03T08:37:48.368Z,1.60
2018-07-03T08:40:15.826Z,1.10
2018-07-03T08:42:43.278Z,1.77
2018-07-03T08:45:10.622Z,1.20
2018-07-03T08:47:37.982Z,1.17
2018-07-03T08:50:05.381Z,1.30
2018-07-03T08:52:32.767Z,1.20
2018-07-03T08:55:00.214Z,1.20
2018-07-03T08:57:27.581Z,1.10
2018-07-03T08:59:54.955Z,1.13
2018-07-03T09:02:22.434Z,1.00
2018-07-03T09:04:49.876Z,1.20
2018-07-03T09:07:17.245Z,1.40
2018-07-03T09:09:44.613Z,1.10
2018-07-03T09:12:11.985Z,1.30
2018-07-03T09:14:39.333Z,1.30
2018-07-03T09:17:12.370Z,1.30
2018-07-03T09:19:39.817Z,1.20
2018-07-03T09:22:07.474Z,1.30
2018-07-03T09:24:34.870Z,1.40
2018-07-03T09:27:02.260Z,1.20
2018-07-03T09:29:29.695Z,1.33
2018-07-03T09:31:57.077Z,1.30
2018-07-03T09:34:25.011Z,1.40
2018-07-03T09:36:52.442Z,1.27
2018-07-03T09:39:19.878Z,1.30
2018-07-03T09:41:47.264Z,1.07
2018-07-03T09:44:14.719Z,1.13
2018-07-03T09:46:42.104Z,1.10
2018-07-03T09:49:09.561Z,1.37
2018-07-03T09:51:36.952Z,1.30
2018-07-03T09:54:04.526Z,1.30
2018-07-03T09:56:32.622Z,1.40
2018-07-03T09:59:00.084Z,1.10
2018-07-03T10:01:27.557Z,1.20
2018-07-03T10:03:55.033Z,1.30
2018-07-03T10:06:22.484Z,1.30
2018-07-03T10:08:49.965Z,1.20
2018-07-03T10:11:17.398Z,1.27
2018-07-03T10:13:44.768Z,1.47
2018-07-03T10:16:12.150Z,1.20
2018-07-03T10:18:39.513Z,1.20
2018-07-03T10:21:06.889Z,1.40
2018-07-03T10:23:34.282Z,1.30
2018-07-03T10:26:01.784Z,1.40
2018-07-03T10:28:29.166Z,1.60
2018-07-03T10:30:56.566Z,1.50
2018-07-03T10:33:24.022Z,1.20
2018-07-03T10:35:51.382Z,1.40
2018-07-03T10:38:18.790Z,1.20
2018-07-03T10:40:46.230Z,1.30
2018-07-03T10:43:13.603Z,1.30
2018-07-03T10:45:41.297Z,1.33
2018-07-03T10:48:08.721Z,1.30
2018-07-03T10:50:36.620Z,1.40
2018-07-03T10:53:04.087Z,1.10
2018-07-03T10:55:31.501Z,1.30
2018-07-03T10:57:58.933Z,1.27
2018-07-03T11:00:26.327Z,1.20
2018-07-03T11:02:53.749Z,1.20
2018-07-03T11:05:21.135Z,1.00
2018-07-03T11:07:48.498Z,1.40
2018-07-03T11:10:15.867Z,1.20
2018-07-03T11:12:43.228Z,1.67
2018-07-03T11:15:10.693Z,1.47
2018-07-03T11:17:38.115Z,1.10
2018-07-03T11:20:06.231Z,1.10
2018-07-03T11:22:33.647Z,1.30
2018-07-03T11:25:01.538Z,1.20
2018-07-03T11:27:29.013Z,1.20
2018-07-03T11:29:56.441Z,1.30
2018-07-03T11:32:23.820Z,1.40
2018-07-03T11:34:51.194Z,1.30
2018-07-03T11:37:18.560Z,1.43
2018-07-03T11:39:46.033Z,1.57
2018-07-03T11:42:13.506Z,1.23
2018-07-03T11:44:40.953Z,1.50
2018-07-03T11:47:08.351Z,1.30
2018-07-03T11:49:36.052Z,1.30
2018-07-03T11:52:03.818Z,1.20
2018-07-03T11:54:31.258Z,1.30
2018-07-03T11:56:58.622Z,1.47
2018-07-03T11:59:26.014Z,1.40
2018-07-03T12:01:53.477Z,1.40
2018-07-03T12:04:20.869Z,1.23
2018-07-03T12:06:48.298Z,1.40
2018-07-03T12:09:15.717Z,1.20
2018-07-03T12:11:43.128Z,1.20
2018-07-03T12:14:10.561Z,1.30
2018-07-03T12:16:37.965Z,1.17
2018-07-03T12:19:05.363Z,1.50
2018-07-03T12:21:32.815Z,1.33
2018-07-03T12:24:00.283Z,1.20
2018-07-03T12:26:27.665Z,1.40
2018-07-03T12:28:55.190Z,1.30
2018-07-03T12:31:22.576Z,1.27
2018-07-03T12:33:49.942Z,1.20
2018-07-03T12:36:17.336Z,1.40
2018-07-03T12:38:44.798Z,1.10
2018-07-03T12:41:12.257Z,1.63
2018-07-03T12:43:39.703Z,1.17
2018-07-03T12:46:07.482Z,1.20
2018-07-03T12:48:35.057Z,1.30
2018-07-03T12:51:02.473Z,1.50
2018-07-03T12:53:29.887Z,1.40
2018-07-03T12:55:57.574Z,1.27
2018-07-03T12:58:24.929Z,1.30
2018-07-03T13:00:52.345Z,1.43
2018-07-03T13:03:19.809Z,1.40
2018-07-03T13:05:47.260Z,1.20
2018-07-03T13:08:14.643Z,1.20
2018-07-03T13:10:42.101Z,1.37
2018-07-03T13:13:09.425Z,1.20
2018-07-03T13:15:36.826Z,1.23
2018-07-03T13:18:10.397Z,1.40
2018-07-03T13:20:37.817Z,1.07
2018-07-03T13:23:05.155Z,1.20
2018-07-03T13:25:32.538Z,1.20
2018-07-03T13:27:59.950Z,1.20
2018-07-03T13:30:27.393Z,1.40
2018-07-03T13:32:54.742Z,1.33
2018-07-03T13:35:22.114Z,1.10
2018-07-03T13:37:49.478Z,1.27
2018-07-03T13:40:16.840Z,1.00
2018-07-03T13:42:44.203Z,1.10
2018-07-03T13:45:11.586Z,1.10
2018-07-03T13:47:38.953Z,1.10
2018-07-03T13:50:06.339Z,1.27
2018-07-03T13:56:04.663Z,1.10
2018-07-03T13:58:32.005Z,0.90
2018-07-03T14:00:59.397Z,0.90
2018-07-03T14:03:26.832Z,1.00
2018-07-03T14:05:54.199Z,1.30
2018-07-03T14:08:21.591Z,1.10
2018-07-03T14:10:48.947Z,1.57
2018-07-03T14:13:16.324Z,0.93
2018-07-03T14:15:43.715Z,0.93
2018-07-03T14:18:11.201Z,1.03
2018-07-03T14:20:38.734Z,1.20
2018-07-03T14:23:06.135Z,1.13
2018-07-03T14:25:33.569Z,1.50
2018-07-03T14:28:00.928Z,1.40
2018-07-03T14:30:28.810Z,1.13
2018-07-03T14:32:56.161Z,1.13
2018-07-03T14:35:23.537Z,1.00
2018-07-03T14:37:50.941Z,1.00
2018-07-03T14:40:18.415Z,1.13
2018-07-03T14:42:45.850Z,1.20
2018-07-03T14:45:13.225Z,0.90
2018-07-03T14:47:40.592Z,1.00
2018-07-03T14:50:07.976Z,1.03
2018-07-03T14:52:35.414Z,1.40
2018-07-03T14:55:02.792Z,0.90
2018-07-03T14:57:30.171Z,1.00
2018-07-03T14:59:57.582Z,1.13
2018-07-03T15:02:25.011Z,1.10
2018-07-03T15:04:52.382Z,1.20
2018-07-03T15:07:19.725Z,0.87
2018-07-03T15:09:47.102Z,0.90
2018-07-03T15:12:14.501Z,1.00
2018-07-03T15:14:41.932Z,1.00
2018-07-03T15:17:09.289Z,1.10
2018-07-03T15:19:42.332Z,0.97
2018-07-03T15:22:09.753Z,1.00
2018-07-03T15:24:37.182Z,1.30
2018-07-03T15:27:04.641Z,0.90
2018-07-03T15:29:32.095Z,1.17
2018-07-03T15:31:59.471Z,1.00
2018-07-03T15:34:26.835Z,0.93
2018-07-03T15:36:54.298Z,1.07
2018-07-03T15:39:21.676Z,1.00
2018-07-03T15:41:49.046Z,1.03
2018-07-03T15:44:22.238Z,1.27
2018-07-03T15:46:49.622Z,1.07
2018-07-03T15:49:17.452Z,1.10
2018-07-03T15:51:45.466Z,1.07
2018-07-03T15:54:12.860Z,1.10
2018-07-03T15:56:40.203Z,1.30
2018-07-03T15:59:07.604Z,1.00
2018-07-03T16:01:35.047Z,0.93
2018-07-03T16:04:08.439Z,1.20
2018-07-03T16:06:41.382Z,0.90
2018-07-03T16:09:16.149Z,1.10
2018-07-03T16:11:43.547Z,1.33
2018-07-03T16:14:11.546Z,1.27
2018-07-03T16:16:39.185Z,1.17
2018-07-03T16:19:12.279Z,1.20
2018-07-03T16:21:39.706Z,1.27
2018-07-03T16:24:07.820Z,1.00
2018-07-03T16:26:35.231Z,1.10
2018-07-03T16:29:03.051Z,1.03
2018-07-03T16:31:30.488Z,1.20
2018-07-03T16:33:57.849Z,1.10
2018-07-03T16:36:25.226Z,1.10
2018-07-03T16:38:52.776Z,1.13
2018-07-03T16:41:20.162Z,1.00
2018-07-03T16:43:47.493Z,1.20
2018-07-03T16:46:14.886Z,1.20
2018-07-03T18:10:39.706Z,1.37
2018-07-03T18:13:07.129Z,1.40
2018-07-03T18:15:34.520Z,1.30
2018-07-03T18:18:02.033Z,1.20
2018-07-03T18:20:29.472Z,1.37
2018-07-03T18:22:56.923Z,1.50
2018-07-03T18:25:24.253Z,1.27
2018-07-03T18:27:52.481Z,1.47
2018-07-03T18:30:19.926Z,1.23
2018-07-03T18:32:47.296Z,1.40
2018-07-03T18:35:14.705Z,1.60
2018-07-03T18:37:42.196Z,1.40
2018-07-03T18:40:09.658Z,1.40
2018-07-03T18:42:37.060Z,1.40
2018-07-03T18:45:04.796Z,1.23
2018-07-03T18:47:32.239Z,1.30
2018-07-03T18:49:59.594Z,1.10
2018-07-03T20:14:24.381Z,2.50
2018-07-03T20:16:51.706Z,2.67
2018-07-03T20:19:19.087Z,2.37
2018-07-03T20:21:46.738Z,2.40
2018-07-03T20:24:15.304Z,2.30
2018-07-03T20:26:42.744Z,2.37
2018-07-03T20:29:10.797Z,2.17
2018-07-03T20:31:38.177Z,2.23
2018-07-03T20:34:05.534Z,2.20
2018-07-03T20:36:32.916Z,2.13
2018-07-03T20:39:01.816Z,2.50
2018-07-03T20:41:29.232Z,2.67
2018-07-03T20:43:56.653Z,2.03
2018-07-03T20:46:24.029Z,2.30
2018-07-03T20:48:51.401Z,2.80
2018-07-03T20:51:18.773Z,2.83
2018-07-03T20:53:46.114Z,2.50
2018-07-03T20:56:14.525Z,2.20
2018-07-03T20:58:41.863Z,2.37
2018-07-03T21:01:09.222Z,2.23
2018-07-03T21:03:36.635Z,2.90
2018-07-03T21:06:04.186Z,2.30
2018-07-03T21:08:31.557Z,2.30
2018-07-03T21:10:58.917Z,2.13
2018-07-03T21:13:26.301Z,2.30
2018-07-03T21:15:53.638Z,2.50
2018-07-03T21:18:21.005Z,2.47
2018-07-03T21:20:48.418Z,2.90
2018-07-03T21:23:15.755Z,2.20
2018-07-03T21:25:43.122Z,2.43
2018-07-03T21:28:10.483Z,2.60
2018-07-03T21:30:37.933Z,2.30
2018-07-03T21:33:05.324Z,2.87
2018-07-03T21:35:32.721Z,3.13
2018-07-03T21:38:00.087Z,2.17
2018-07-03T21:40:27.429Z,2.87
2018-07-03T21:42:54.809Z,2.40
2018-07-03T21:45:22.197Z,3.00
2018-07-03T21:47:49.540Z,2.83
2018-07-03T21:50:16.912Z,3.00
2018-07-03T21:52:44.288Z,3.30
2018-07-03T21:55:11.645Z,2.77
2018-07-03T21:57:39.023Z,2.50
2018-07-03T22:00:06.884Z,3.00
2018-07-03T22:02:34.272Z,2.60
2018-07-03T22:05:01.756Z,2.97
2018-07-03T22:07:29.183Z,2.50
2018-07-03T22:09:56.577Z,2.30
2018-07-03T22:12:23.917Z,2.73
2018-07-03T22:14:51.309Z,2.70
2018-07-03T22:17:18.655Z,2.67
2018-07-03T22:19:46.038Z,2.43
2018-07-03T22:22:13.389Z,3.07
2018-07-03T22:24:40.766Z,2.77
2018-07-03T22:27:08.194Z,2.50
2018-07-03T22:29:35.480Z,2.80
2018-07-03T22:32:03.327Z,3.20
2018-07-03T22:34:30.738Z,3.17
2018-07-03T22:36:58.123Z,2.70
2018-07-03T22:39:25.520Z,2.93
2018-07-03T22:41:52.854Z,2.63
2018-07-03T22:44:20.620Z,3.37
2018-07-03T22:46:47.990Z,2.73
2018-07-03T22:49:15.357Z,2.90
2018-07-03T22:51:46.337Z,3.23
2018-07-03T22:54:13.787Z,3.33
2018-07-03T22:56:41.249Z,3.07
2018-07-03T22:59:08.601Z,3.40
2018-07-03T23:01:45.761Z,3.80
2018-07-03T23:04:13.507Z,3.30
2018-07-03T23:06:41.024Z,3.33
2018-07-03T23:09:08.754Z,3.70
2018-07-03T23:11:36.704Z,3.50
2018-07-03T23:14:04.375Z,3.60
2018-07-03T23:16:32.312Z,3.17
2018-07-03T23:19:00.064Z,3.40
2018-07-03T23:21:28.005Z,3.30
2018-07-03T23:23:56.812Z,3.60
2018-07-03T23:26:24.231Z,3.40
2018-07-03T23:28:51.696Z,3.37
2018-07-03T23:31:19.496Z,3.50
2018-07-03T23:33:46.938Z,3.43
2018-07-03T23:36:15.133Z,3.57
2018-07-03T23:38:42.589Z,3.20
2018-07-03T23:41:10.071Z,3.43
2018-07-03T23:43:37.816Z,3.23
2018-07-03T23:46:05.171Z,3.57
2018-07-03T23:48:38.755Z,3.50
2018-07-03T23:51:12.848Z,4.00
2018-07-03T23:53:46.218Z,3.70
2018-07-03T23:56:19.554Z,3.50
2018-07-03T23:58:53.045Z,4.13
